Batesburg, South Carolina
Current Conditions -  °F | °C
As of 5:35 PM on Sunday 23 Nov 2014 (Local Time) from KAIK Reporting Station
Thunderstorm Thunderstorm  
Wind Chill: 64°   Ceiling: 500
Heat Index: 64°   Visibility: 5mi
Dew Point: 64°   Wind: 9mph
Humidity: 100%   Direction: 120°ESE
Pressure: 29.84"   Gusts: 18mph
Location:  33.91°N, 81.55°W
Report Text: KAIK 232235Z AUTO 12008G16KT 5SM +VCTSRA OVC005 18/18 A2984 RMK AO2 LTG DSNT E THRU SW PNO
Loading
Personal Weather Stations






























Interactive Weather Map New forecast layout! Learn more

10-Day Weather Forecast

Advertisements
Track Severe Weather on mobile